createdAt,value
2018-06-07T00:01:53.094Z,2.60
2018-06-07T00:04:21.314Z,2.40
2018-06-07T00:06:49.740Z,1.90
2018-06-07T00:09:17.925Z,1.70
2018-06-07T00:11:46.250Z,1.43
2018-06-07T00:14:14.461Z,1.60
2018-06-07T00:16:42.618Z,1.63
2018-06-07T00:19:10.800Z,1.40
2018-06-07T00:21:38.924Z,1.60
2018-06-07T00:24:07.080Z,1.50
2018-06-07T00:26:35.318Z,1.60
2018-06-07T00:29:03.460Z,1.67
2018-06-07T00:31:31.620Z,1.83
2018-06-07T00:33:59.851Z,1.73
2018-06-07T00:36:28.154Z,1.60
2018-06-07T00:38:56.344Z,1.80
2018-06-07T00:41:24.753Z,1.30
2018-06-07T00:43:53.230Z,1.40
2018-06-07T00:46:21.483Z,1.70
2018-06-07T00:48:49.598Z,1.50
2018-06-07T00:51:17.746Z,1.63
2018-06-07T00:53:45.921Z,1.90
2018-06-07T00:56:25.441Z,1.50
2018-06-07T00:58:53.603Z,1.67
2018-06-07T01:01:21.737Z,1.73
2018-06-07T01:03:49.895Z,1.57
2018-06-07T01:06:18.019Z,1.30
2018-06-07T01:08:46.208Z,1.50
2018-06-07T01:11:14.613Z,1.50
2018-06-07T01:13:43.497Z,1.53
2018-06-07T01:16:11.660Z,1.50
2018-06-07T01:18:39.995Z,1.90
2018-06-07T01:21:08.208Z,1.70
2018-06-07T01:23:36.425Z,1.27
2018-06-07T01:26:04.634Z,1.67
2018-06-07T01:28:32.877Z,1.23
2018-06-07T01:31:06.430Z,1.57
2018-06-07T01:33:36.403Z,1.40
2018-06-07T01:36:04.636Z,1.70
2018-06-07T01:38:44.406Z,1.27
2018-06-07T01:41:12.615Z,1.50
2018-06-07T01:43:41.321Z,1.20
2018-06-07T01:46:09.788Z,1.60
2018-06-07T01:48:37.940Z,1.53
2018-06-07T01:51:06.102Z,1.27
2018-06-07T01:53:34.427Z,1.30
2018-06-07T01:56:02.606Z,1.47
2018-06-07T01:58:30.960Z,1.40
2018-06-07T02:00:59.195Z,1.60
2018-06-07T02:03:27.388Z,1.30
2018-06-07T02:05:55.580Z,1.20
2018-06-07T02:08:23.755Z,1.80
2018-06-07T02:10:52.081Z,1.40
2018-06-07T02:13:20.211Z,1.73
2018-06-07T02:15:48.466Z,1.60
2018-06-07T02:18:16.844Z,1.73
2018-06-07T02:20:45.039Z,1.20
2018-06-07T02:23:13.208Z,1.37
2018-06-07T02:25:41.396Z,1.40
2018-06-07T02:28:09.560Z,1.97
2018-06-07T02:30:37.699Z,1.97
2018-06-07T02:33:06.080Z,1.80
2018-06-07T02:35:34.241Z,1.80
2018-06-07T02:38:02.918Z,1.60
2018-06-07T02:40:31.024Z,1.67
2018-06-07T02:42:59.162Z,1.30
2018-06-07T02:45:27.298Z,1.37
2018-06-07T02:47:55.484Z,1.50
2018-06-07T02:50:30.252Z,1.53
2018-06-07T02:52:58.420Z,1.70
2018-06-07T02:55:26.618Z,1.60
2018-06-07T02:57:55.252Z,1.70
2018-06-07T03:00:23.466Z,1.17
2018-06-07T03:02:51.832Z,1.47
2018-06-07T03:05:19.992Z,1.40
2018-06-07T03:07:48.412Z,2.13
2018-06-07T03:10:16.544Z,1.73
2018-06-07T03:12:44.798Z,1.50
2018-06-07T03:15:13.248Z,1.23
2018-06-07T03:17:41.381Z,1.50
2018-06-07T03:20:09.824Z,1.60
2018-06-07T03:22:38.382Z,1.70
2018-06-07T03:25:06.578Z,1.73
2018-06-07T03:27:34.694Z,1.40
2018-06-07T03:30:02.957Z,1.50
2018-06-07T03:32:31.136Z,1.73
2018-06-07T03:34:59.280Z,1.90
2018-06-07T03:37:27.476Z,1.50
2018-06-07T03:39:56.178Z,1.73
2018-06-07T03:42:24.611Z,1.70
2018-06-07T03:44:52.574Z,1.83
2018-06-07T03:47:20.769Z,1.70
2018-06-07T03:49:48.916Z,1.70
2018-06-07T03:52:17.073Z,1.80
2018-06-07T03:54:45.473Z,1.90
2018-06-07T03:57:13.591Z,2.13
2018-06-07T03:59:41.803Z,2.10
2018-06-07T04:02:10.135Z,2.20
2018-06-07T04:04:38.231Z,1.70
2018-06-07T04:07:06.455Z,2.33
2018-06-07T04:09:34.648Z,2.10
2018-06-07T04:12:02.899Z,2.10
2018-06-07T04:14:31.043Z,2.20
2018-06-07T04:16:59.204Z,2.37
2018-06-07T04:19:27.385Z,2.20
2018-06-07T04:21:55.534Z,2.40
2018-06-07T04:24:23.991Z,2.40
2018-06-07T04:26:52.133Z,2.33
2018-06-07T04:29:20.175Z,2.50
2018-06-07T04:31:48.336Z,2.80
2018-06-07T04:34:16.600Z,2.55
2018-06-07T04:36:44.762Z,2.50
2018-06-07T04:39:12.928Z,2.85
2018-06-07T04:41:41.347Z,2.52
2018-06-07T04:44:09.519Z,2.40
2018-06-07T04:46:37.967Z,2.50
2018-06-07T04:49:06.415Z,2.80
2018-06-07T04:51:34.693Z,2.72
2018-06-07T04:54:02.866Z,3.05
2018-06-07T04:56:31.276Z,3.30
2018-06-07T04:58:59.481Z,3.05
2018-06-07T05:01:27.658Z,2.47
2018-06-07T05:03:55.862Z,2.55
2018-06-07T05:06:24.140Z,3.20
2018-06-07T05:08:52.563Z,2.80
2018-06-07T05:11:20.756Z,3.15
2018-06-07T05:13:48.932Z,3.30
2018-06-07T05:16:17.116Z,3.20
2018-06-07T05:18:45.321Z,3.10
2018-06-07T05:21:14.037Z,3.15
2018-06-07T05:23:42.329Z,3.10
2018-06-07T05:26:10.532Z,3.00
2018-06-07T05:28:38.749Z,2.92
2018-06-07T05:31:07.146Z,3.05
2018-06-07T05:33:35.336Z,3.40
2018-06-07T05:36:03.564Z,3.55
2018-06-07T05:38:31.988Z,3.02
2018-06-07T05:41:00.201Z,3.17
2018-06-07T05:43:28.355Z,3.00
2018-06-07T05:45:56.608Z,3.20
2018-06-07T05:48:24.772Z,2.50
2018-06-07T05:50:53.053Z,3.08
2018-06-07T05:53:21.203Z,2.85
2018-06-07T05:55:50.232Z,3.00
2018-06-07T05:58:18.432Z,3.60
2018-06-07T06:00:46.699Z,3.10
2018-06-07T06:03:14.906Z,3.33
2018-06-07T06:05:43.050Z,2.77
2018-06-07T06:08:11.281Z,3.12
2018-06-07T06:10:39.511Z,2.70
2018-06-07T06:13:07.964Z,3.20
2018-06-07T06:15:36.156Z,3.08
2018-06-07T06:18:04.984Z,2.65
2018-06-07T06:20:33.372Z,2.98
2018-06-07T06:23:01.710Z,3.00
2018-06-07T06:25:29.952Z,2.95
2018-06-07T06:27:58.249Z,2.72
2018-06-07T06:30:26.620Z,2.60
2018-06-07T06:32:54.766Z,2.42
2018-06-07T06:35:22.956Z,2.50
2018-06-07T06:38:55.114Z,2.60
2018-06-07T06:41:23.360Z,2.87
2018-06-07T06:43:51.544Z,2.30
2018-06-07T06:46:19.734Z,2.90
2018-06-07T06:48:47.977Z,2.50
2018-06-07T06:51:16.132Z,2.75
2018-06-07T06:53:46.308Z,2.50
2018-06-07T06:56:14.861Z,2.47
2018-06-07T06:58:43.306Z,2.25
2018-06-07T07:01:11.449Z,2.80
2018-06-07T07:03:39.587Z,2.52
2018-06-07T07:06:08.047Z,2.40
2018-06-07T07:08:36.306Z,2.47
2018-06-07T07:11:04.526Z,2.60
2018-06-07T07:13:32.838Z,2.30
2018-06-07T07:16:01.185Z,2.83
2018-06-07T07:18:29.359Z,2.33
2018-06-07T07:20:57.564Z,2.72
2018-06-07T07:23:25.823Z,2.40
2018-06-07T07:25:54.040Z,2.50
2018-06-07T07:28:22.349Z,2.30
2018-06-07T07:30:50.584Z,2.15
2018-06-07T07:33:18.793Z,2.20
2018-06-07T07:35:46.953Z,2.45
2018-06-07T07:38:15.497Z,2.20
2018-06-07T07:40:43.713Z,2.20
2018-06-07T07:43:11.939Z,2.05
2018-06-07T07:45:40.125Z,2.37
2018-06-07T07:48:08.389Z,2.45
2018-06-07T07:50:36.559Z,2.10
2018-06-07T07:53:04.815Z,2.40
2018-06-07T07:55:33.026Z,2.17
2018-06-07T07:58:01.210Z,2.40
2018-06-07T08:00:29.404Z,2.35
2018-06-07T08:02:57.879Z,2.10
2018-06-07T08:05:26.263Z,2.20
2018-06-07T08:07:54.511Z,2.10
2018-06-07T08:10:22.705Z,1.77
2018-06-07T08:12:51.052Z,2.10
2018-06-07T08:15:19.322Z,2.30
2018-06-07T08:17:47.666Z,1.95
2018-06-07T08:20:15.861Z,1.92
2018-06-07T08:22:44.429Z,2.30
2018-06-07T08:25:12.754Z,2.20
2018-06-07T08:27:41.077Z,2.47
2018-06-07T08:30:09.285Z,1.80
2018-06-07T08:32:37.461Z,2.22
2018-06-07T08:35:05.637Z,1.95
2018-06-07T08:37:34.479Z,2.22
2018-06-07T08:40:02.705Z,2.10
2018-06-07T08:42:31.365Z,2.20
2018-06-07T08:44:59.614Z,1.85
2018-06-07T08:47:28.059Z,1.80
2018-06-07T08:49:56.295Z,2.17
2018-06-07T08:52:24.601Z,2.08
2018-06-07T08:54:59.639Z,1.85
2018-06-07T08:57:28.203Z,2.00
2018-06-07T08:59:56.413Z,2.20
2018-06-07T09:02:25.459Z,2.00
2018-06-07T09:04:53.696Z,2.20
2018-06-07T09:07:22.321Z,2.20
2018-06-07T09:09:51.455Z,2.42
2018-06-07T09:12:19.609Z,2.15
2018-06-07T09:14:48.702Z,2.37
2018-06-07T09:17:17.016Z,2.00
2018-06-07T09:19:45.315Z,2.67
2018-06-07T09:22:13.589Z,2.10
2018-06-07T09:24:41.790Z,2.20
2018-06-07T09:27:10.130Z,2.50
2018-06-07T09:29:38.332Z,2.40
2018-06-07T09:32:06.542Z,2.30
2018-06-07T09:34:34.755Z,1.70
2018-06-07T09:37:02.987Z,2.40
2018-06-07T09:39:31.599Z,2.43
2018-06-07T09:41:59.860Z,2.23
2018-06-07T09:44:28.045Z,2.60
2018-06-07T09:46:56.352Z,2.37
2018-06-07T09:49:24.565Z,2.70
2018-06-07T09:51:52.839Z,2.07
2018-06-07T09:54:21.027Z,2.30
2018-06-07T09:56:49.234Z,2.40
2018-06-07T09:59:17.438Z,2.10
2018-06-07T10:01:47.069Z,1.90
2018-06-07T10:04:15.342Z,2.60
2018-06-07T10:06:43.524Z,1.80
2018-06-07T10:09:11.702Z,2.10
2018-06-07T10:11:39.935Z,2.47
2018-06-07T10:14:08.421Z,2.33
2018-06-07T10:16:36.703Z,2.53
2018-06-07T10:19:05.145Z,2.70
2018-06-07T10:21:33.357Z,2.60
2018-06-07T10:24:01.681Z,2.50
2018-06-07T10:26:29.860Z,2.53
2018-06-07T10:28:58.063Z,2.70
2018-06-07T10:31:26.349Z,2.27
2018-06-07T10:33:54.840Z,2.80
2018-06-07T10:36:22.992Z,2.80
2018-06-07T10:38:51.234Z,2.40
2018-06-07T10:41:19.440Z,2.47
2018-06-07T10:43:47.631Z,2.60
2018-06-07T10:46:16.980Z,2.77
2018-06-07T10:48:45.298Z,2.60
2018-06-07T10:51:13.548Z,2.67
2018-06-07T10:53:41.891Z,2.70
2018-06-07T10:56:10.093Z,2.07
2018-06-07T10:58:38.439Z,2.40
2018-06-07T11:01:06.687Z,2.90
2018-06-07T11:03:35.083Z,2.83
2018-06-07T11:06:03.341Z,2.73
2018-06-07T11:08:31.751Z,3.83
2018-06-07T11:10:59.936Z,3.07
2018-06-07T11:13:28.253Z,2.60
2018-06-07T11:15:56.512Z,2.73
2018-06-07T11:18:24.702Z,3.00
2018-06-07T11:20:52.839Z,2.30
2018-06-07T11:23:21.060Z,2.87
2018-06-07T11:25:49.301Z,2.40
2018-06-07T11:28:17.661Z,2.33
2018-06-07T11:30:45.583Z,2.70
2018-06-07T11:33:13.882Z,2.87
2018-06-07T11:35:42.137Z,2.90
2018-06-07T11:38:10.476Z,3.50
2018-06-07T11:40:38.667Z,2.77
2018-06-07T11:43:07.358Z,2.80
2018-06-07T11:45:35.727Z,3.30
2018-06-07T11:48:03.934Z,2.73
2018-06-07T11:50:32.187Z,3.27
2018-06-07T11:53:00.381Z,3.17
2018-06-07T11:55:28.569Z,2.77
2018-06-07T11:57:57.090Z,2.70
2018-06-07T12:00:25.253Z,2.80
2018-06-07T12:02:53.615Z,3.07
2018-06-07T12:05:21.938Z,2.70
2018-06-07T12:07:50.129Z,2.90
2018-06-07T12:10:18.611Z,3.00
2018-06-07T12:12:48.624Z,3.00
2018-06-07T12:15:17.145Z,3.83
2018-06-07T12:17:45.344Z,3.20
2018-06-07T12:20:13.588Z,2.83
2018-06-07T12:22:41.941Z,2.83
2018-06-07T12:25:10.352Z,3.17
2018-06-07T12:27:38.570Z,2.80
2018-06-07T12:30:06.972Z,3.40
2018-06-07T12:32:35.322Z,3.00
2018-06-07T12:35:04.237Z,2.60
2018-06-07T12:37:32.452Z,2.73
2018-06-07T12:40:01.199Z,2.70
2018-06-07T12:42:29.392Z,2.50
2018-06-07T12:44:57.594Z,2.53
2018-06-07T12:47:25.809Z,2.77
2018-06-07T12:49:54.065Z,2.90
2018-06-07T12:52:22.349Z,2.80
2018-06-07T12:54:50.593Z,2.90
2018-06-07T12:57:18.830Z,2.70
2018-06-07T12:59:47.064Z,2.60
2018-06-07T13:02:15.332Z,3.33
2018-06-07T13:04:44.190Z,3.43
2018-06-07T13:07:12.423Z,2.80
2018-06-07T13:09:40.659Z,2.67
2018-06-07T13:12:08.941Z,3.40
2018-06-07T13:14:37.133Z,2.70
2018-06-07T13:17:05.364Z,2.70
2018-06-07T13:19:33.582Z,2.70
2018-06-07T13:22:01.806Z,3.20
2018-06-07T13:24:30.016Z,2.83
2018-06-07T13:26:58.204Z,2.73
2018-06-07T13:29:26.662Z,3.77
2018-06-07T13:31:55.459Z,4.70
2018-06-07T13:34:23.824Z,5.40
2018-06-07T13:36:52.040Z,4.00
2018-06-07T13:39:20.230Z,3.20
2018-06-07T13:41:48.531Z,2.70
2018-06-07T13:44:16.847Z,3.33
2018-06-07T13:46:45.077Z,2.93
2018-06-07T13:49:13.298Z,2.87
2018-06-07T13:51:41.474Z,3.13
2018-06-07T13:54:09.666Z,2.70
2018-06-07T13:56:37.981Z,2.57
2018-06-07T13:59:06.368Z,2.77
2018-06-07T14:01:34.852Z,2.57
2018-06-07T14:04:03.433Z,2.87
2018-06-07T14:06:31.647Z,2.90
2018-06-07T14:08:59.827Z,2.57
2018-06-07T14:11:28.283Z,3.00
2018-06-07T14:13:56.525Z,2.80
2018-06-07T14:16:25.106Z,2.20
2018-06-07T14:18:53.345Z,2.67
2018-06-07T14:21:21.599Z,2.50
2018-06-07T14:23:49.751Z,2.93
2018-06-07T14:26:18.113Z,2.50
2018-06-07T14:28:46.368Z,2.40
2018-06-07T14:31:14.605Z,3.20
2018-06-07T14:33:43.349Z,3.20
2018-06-07T14:36:12.264Z,3.23
2018-06-07T14:38:40.528Z,3.10
2018-06-07T14:41:08.731Z,2.70
2018-06-07T14:43:37.018Z,2.60
2018-06-07T14:46:05.196Z,3.33
2018-06-07T14:48:33.403Z,2.30
2018-06-07T14:51:01.592Z,2.87
2018-06-07T14:53:30.598Z,2.53
2018-06-07T14:55:59.027Z,2.70
2018-06-07T14:58:27.193Z,2.30
2018-06-07T15:00:55.438Z,3.17
2018-06-07T15:03:23.804Z,2.67
2018-06-07T15:05:52.002Z,3.43
2018-06-07T15:08:20.177Z,3.20
2018-06-07T15:10:48.581Z,2.83
2018-06-07T15:13:16.797Z,2.90
2018-06-07T15:15:45.132Z,3.43
2018-06-07T15:18:14.067Z,3.40
2018-06-07T15:20:42.548Z,2.90
2018-06-07T15:23:10.672Z,3.37
2018-06-07T15:25:38.866Z,2.83
2018-06-07T15:28:07.172Z,2.23
2018-06-07T15:30:35.355Z,2.30
2018-06-07T15:33:03.630Z,2.43
2018-06-07T15:35:31.921Z,2.40
2018-06-07T15:38:00.183Z,2.60
2018-06-07T15:40:28.372Z,2.40
2018-06-07T15:42:56.846Z,2.53
2018-06-07T15:45:24.888Z,3.17
2018-06-07T15:47:53.279Z,2.90
2018-06-07T15:50:21.566Z,2.23
2018-06-07T15:52:50.067Z,2.40
2018-06-07T15:55:18.488Z,2.40
2018-06-07T15:57:46.779Z,2.90
2018-06-07T16:00:14.939Z,2.83
2018-06-07T16:02:43.182Z,2.70
2018-06-07T16:05:11.601Z,2.97
2018-06-07T16:07:40.040Z,2.77
2018-06-07T16:10:08.192Z,2.80
2018-06-07T16:12:36.369Z,2.70
2018-06-07T16:15:04.901Z,2.10
2018-06-07T16:17:33.039Z,2.30
2018-06-07T16:20:01.250Z,2.20
2018-06-07T16:22:29.412Z,2.70
2018-06-07T16:24:57.727Z,2.50
2018-06-07T16:27:25.966Z,2.17
2018-06-07T16:29:54.198Z,2.30
2018-06-07T16:32:22.504Z,2.80
2018-06-07T16:34:50.747Z,2.70
2018-06-07T16:37:19.096Z,2.40
2018-06-07T16:39:47.383Z,2.57
2018-06-07T16:42:15.640Z,2.57
2018-06-07T16:44:43.754Z,2.77
2018-06-07T16:47:12.166Z,2.93
2018-06-07T16:49:40.353Z,2.80
2018-06-07T16:52:08.544Z,2.57
2018-06-07T16:54:36.878Z,2.80
2018-06-07T16:57:05.176Z,2.60
2018-06-07T16:59:33.556Z,2.67
2018-06-07T17:02:02.168Z,3.07
2018-06-07T17:04:30.384Z,2.50
2018-06-07T17:06:58.560Z,3.30
2018-06-07T17:09:26.816Z,2.60
2018-06-07T17:11:55.080Z,2.80
2018-06-07T17:14:23.370Z,2.63
2018-06-07T17:16:51.644Z,2.63
2018-06-07T17:19:19.855Z,3.03
2018-06-07T17:21:48.241Z,3.17
2018-06-07T17:24:16.395Z,3.23
2018-06-07T17:26:44.545Z,3.13
2018-06-07T17:29:13.652Z,3.43
2018-06-07T17:31:42.207Z,2.67
2018-06-07T17:34:10.722Z,2.90
2018-06-07T17:36:38.961Z,3.67
2018-06-07T17:39:07.836Z,2.80
2018-06-07T17:41:36.453Z,2.67
2018-06-07T17:44:04.618Z,3.07
2018-06-07T17:46:33.067Z,3.70
2018-06-07T17:49:01.441Z,4.77
2018-06-07T17:51:29.854Z,2.73
2018-06-07T17:53:58.290Z,3.10
2018-06-07T17:56:26.473Z,2.80
2018-06-07T17:58:54.683Z,2.57
2018-06-07T18:01:22.932Z,2.97
2018-06-07T18:03:51.310Z,2.80
2018-06-07T18:06:19.548Z,2.73
2018-06-07T18:08:47.707Z,3.10
2018-06-07T18:11:15.921Z,2.73
2018-06-07T18:13:44.155Z,3.20
2018-06-07T18:16:12.448Z,3.73
2018-06-07T18:18:41.340Z,3.67
2018-06-07T18:21:09.488Z,3.30
2018-06-07T18:23:37.864Z,3.80
2018-06-07T18:26:06.141Z,3.87
2018-06-07T18:28:34.373Z,3.40
2018-06-07T18:31:02.565Z,3.40
2018-06-07T18:33:30.845Z,3.77
2018-06-07T18:35:59.081Z,3.97
2018-06-07T18:38:27.244Z,3.10
2018-06-07T18:40:56.072Z,3.93
2018-06-07T18:43:24.316Z,3.37
2018-06-07T18:45:52.504Z,3.43
2018-06-07T18:48:21.256Z,3.50
2018-06-07T18:50:49.834Z,3.27
2018-06-07T18:53:18.405Z,3.80
2018-06-07T18:55:46.718Z,3.60
2018-06-07T18:58:15.074Z,2.77
2018-06-07T19:00:43.323Z,2.67
2018-06-07T19:03:11.706Z,2.77
2018-06-07T19:05:40.301Z,2.50
2018-06-07T19:08:08.671Z,2.60
2018-06-07T19:10:36.872Z,2.40
2018-06-07T19:13:09.854Z,2.57
2018-06-07T19:15:38.251Z,3.10
2018-06-07T19:18:06.922Z,2.33
2018-06-07T19:20:40.537Z,2.50
2018-06-07T19:23:08.929Z,3.50
2018-06-07T19:26:43.746Z,3.50
2018-06-07T19:29:12.067Z,2.10
2018-06-07T19:31:44.619Z,2.80
2018-06-07T19:34:18.386Z,3.10
2018-06-07T19:36:46.881Z,2.80
2018-06-07T19:39:21.002Z,3.10
2018-06-07T19:41:55.595Z,3.40
2018-06-07T19:44:24.040Z,2.80
2018-06-07T19:46:52.266Z,3.37
2018-06-07T19:49:20.603Z,2.73
2018-06-07T19:51:48.939Z,3.03
2018-06-07T19:54:17.293Z,2.80
2018-06-07T19:56:45.648Z,2.70
2018-06-07T19:59:14.034Z,2.83
2018-06-07T20:01:42.497Z,2.67
2018-06-07T20:04:10.713Z,2.80
2018-06-07T20:06:38.946Z,2.80
2018-06-07T20:09:08.492Z,2.70
2018-06-07T20:11:38.033Z,2.80
2018-06-07T20:14:06.244Z,2.53
2018-06-07T20:16:35.511Z,2.90
2018-06-07T20:19:03.776Z,3.17
2018-06-07T20:21:32.043Z,2.70
2018-06-07T20:24:00.328Z,3.03
2018-06-07T20:26:28.555Z,2.77
2018-06-07T20:28:56.807Z,2.27
2018-06-07T20:31:25.060Z,3.00
2018-06-07T20:33:53.357Z,2.57
2018-06-07T20:36:21.618Z,2.70
2018-06-07T20:38:49.865Z,2.50
2018-06-07T20:41:18.873Z,2.50
2018-06-07T20:43:47.207Z,3.00
2018-06-07T20:46:15.529Z,2.80
2018-06-07T20:48:44.184Z,2.80
2018-06-07T20:51:12.491Z,2.27
2018-06-07T20:53:40.730Z,2.90
2018-06-07T20:56:09.069Z,3.00
2018-06-07T20:58:37.693Z,2.70
2018-06-07T21:01:05.958Z,2.63
2018-06-07T21:03:34.249Z,2.40
2018-06-07T21:06:02.514Z,2.67
2018-06-07T21:08:30.874Z,2.70
2018-06-07T21:11:01.639Z,2.70
2018-06-07T21:13:30.178Z,2.90
2018-06-07T21:15:58.382Z,2.40
2018-06-07T21:18:26.672Z,2.70
2018-06-07T21:20:55.222Z,3.13
2018-06-07T21:23:23.580Z,5.33
2018-06-07T21:25:51.953Z,2.20
2018-06-07T21:28:20.430Z,3.07
2018-06-07T21:30:49.153Z,2.10
2018-06-07T21:33:17.723Z,2.20
2018-06-07T21:35:47.705Z,2.43
2018-06-07T21:38:16.186Z,2.93
2018-06-07T21:40:45.055Z,2.43
2018-06-07T21:43:14.104Z,2.50
2018-06-07T21:45:42.360Z,2.93
2018-06-07T21:48:11.136Z,2.20
2018-06-07T21:50:39.530Z,2.40
2018-06-07T21:53:07.734Z,2.40
2018-06-07T21:55:35.980Z,2.20
2018-06-07T21:58:04.203Z,2.47
2018-06-07T22:00:32.576Z,2.20
2018-06-07T22:03:00.936Z,2.30
2018-06-07T22:05:29.884Z,2.57
2018-06-07T22:08:04.606Z,2.60
2018-06-07T22:10:32.868Z,2.33
2018-06-07T22:13:01.403Z,2.10
2018-06-07T22:15:30.040Z,2.70
2018-06-07T22:17:58.366Z,2.40
2018-06-07T22:20:26.715Z,2.10
2018-06-07T22:22:55.069Z,2.40
2018-06-07T22:25:23.253Z,2.90
2018-06-07T22:27:51.585Z,2.67
2018-06-07T22:30:19.800Z,2.63
2018-06-07T22:32:48.088Z,2.10
2018-06-07T22:35:16.331Z,2.60
2018-06-07T22:37:44.597Z,2.67
2018-06-07T22:40:12.772Z,2.30
2018-06-07T22:42:41.146Z,2.30
2018-06-07T22:45:09.337Z,2.60
2018-06-07T22:47:37.561Z,2.03
2018-06-07T22:50:05.979Z,2.50
2018-06-07T22:52:34.849Z,2.40
2018-06-07T22:55:02.978Z,2.53
2018-06-07T22:57:31.221Z,2.27
2018-06-07T22:59:59.460Z,2.20
2018-06-07T23:02:27.559Z,2.40
2018-06-07T23:04:55.771Z,2.43
2018-06-07T23:07:24.177Z,2.77
2018-06-07T23:09:52.501Z,2.37
2018-06-07T23:12:20.863Z,2.40
2018-06-07T23:14:49.028Z,2.40
2018-06-07T23:17:17.329Z,2.57
2018-06-07T23:19:45.485Z,2.50
2018-06-07T23:22:13.627Z,2.43
2018-06-07T23:24:41.824Z,2.50
2018-06-07T23:27:10.195Z,2.20
2018-06-07T23:29:38.410Z,2.33
2018-06-07T23:32:06.659Z,2.10
2018-06-07T23:34:34.863Z,2.40
2018-06-07T23:37:03.036Z,2.30
2018-06-07T23:39:31.298Z,2.27
2018-06-07T23:41:59.535Z,2.47
2018-06-07T23:44:27.742Z,2.27
2018-06-07T23:46:55.942Z,2.17
2018-06-07T23:49:24.341Z,2.27
2018-06-07T23:51:52.558Z,2.23
2018-06-07T23:54:20.731Z,2.10
2018-06-07T23:56:48.958Z,2.27
2018-06-07T23:59:17.120Z,2.20
